createdAt,value
2022-09-21T00:01:16.216Z,6.98
2022-09-21T00:03:43.944Z,7.00
2022-09-21T00:06:18.960Z,7.06
2022-09-21T00:08:46.657Z,7.07
2022-09-21T00:11:14.894Z,7.08
2022-09-21T00:13:43.436Z,7.10
2022-09-21T00:16:10.277Z,7.09
2022-09-21T00:18:37.437Z,7.16
2022-09-21T00:21:13.192Z,7.18
2022-09-21T00:23:39.895Z,7.27
2022-09-21T00:26:33.514Z,7.32
2022-09-21T00:29:02.407Z,7.35
2022-09-21T00:31:31.071Z,7.37
2022-09-21T00:33:59.118Z,7.35
2022-09-21T00:36:26.505Z,7.36
2022-09-21T00:38:57.162Z,7.36
2022-09-21T00:41:25.164Z,7.35
2022-09-21T00:44:16.378Z,7.28
2022-09-21T00:46:43.775Z,7.24
2022-09-21T00:49:10.439Z,7.20
2022-09-21T00:51:38.251Z,7.15
2022-09-21T00:54:12.262Z,7.06
2022-09-21T00:56:39.160Z,7.05
2022-09-21T00:59:06.350Z,7.03
2022-09-21T01:01:33.207Z,6.95
2022-09-21T01:04:00.713Z,6.94
2022-09-21T01:06:27.329Z,6.94
2022-09-21T01:08:58.998Z,6.90
2022-09-21T01:11:30.680Z,6.85
2022-09-21T01:14:34.914Z,6.84
2022-09-21T01:17:06.890Z,6.79
2022-09-21T01:19:45.917Z,6.82
2022-09-21T01:22:33.062Z,6.83
2022-09-21T01:25:08.273Z,6.85
2022-09-21T01:27:41.557Z,6.84
2022-09-21T01:30:13.944Z,6.85
2022-09-21T01:33:06.831Z,6.83
2022-09-21T01:35:38.402Z,6.80
2022-09-21T01:38:17.694Z,6.84
2022-09-21T01:40:47.982Z,6.85
2022-09-21T01:43:21.851Z,6.84
2022-09-21T01:45:52.854Z,6.85
2022-09-21T01:48:22.315Z,6.86
2022-09-21T01:50:54.193Z,6.88
2022-09-21T01:53:35.854Z,6.86
2022-09-21T01:56:12.871Z,6.85
2022-09-21T01:58:46.465Z,6.86
2022-09-21T02:01:17.539Z,6.89
2022-09-21T02:03:57.293Z,6.91
2022-09-21T02:06:27.166Z,6.94
2022-09-21T02:08:53.755Z,6.94
2022-09-21T02:11:20.566Z,7.01
2022-09-21T02:13:50.343Z,7.02
2022-09-21T02:16:47.807Z,7.06
2022-09-21T02:19:39.079Z,7.09
2022-09-21T02:22:12.662Z,7.15
2022-09-21T02:24:44.230Z,7.17
2022-09-21T02:27:13.565Z,7.15
2022-09-21T02:29:51.677Z,7.19
2022-09-21T02:32:28.047Z,7.25
2022-09-21T02:35:08.013Z,7.32
2022-09-21T02:37:41.492Z,7.36
2022-09-21T02:40:26.373Z,7.38
2022-09-21T02:42:59.267Z,7.43
2022-09-21T02:45:33.141Z,7.46
2022-09-21T02:48:08.763Z,7.50
2022-09-21T02:50:53.804Z,7.51
2022-09-21T02:53:32.101Z,7.51
2022-09-21T02:56:02.995Z,7.50
2022-09-21T02:58:31.014Z,7.50
2022-09-21T03:00:59.438Z,7.49
2022-09-21T03:03:26.320Z,7.46
2022-09-21T03:05:54.791Z,7.45
2022-09-21T03:08:22.052Z,7.46
2022-09-21T03:10:50.102Z,7.46
2022-09-21T03:13:17.866Z,7.44
2022-09-21T03:15:45.547Z,7.49
2022-09-21T03:18:13.070Z,7.53
2022-09-21T03:20:41.455Z,7.51
2022-09-21T03:23:08.196Z,7.53
2022-09-21T03:25:34.783Z,7.53
2022-09-21T03:28:01.522Z,7.53
2022-09-21T03:30:29.274Z,7.52
2022-09-21T03:32:56.176Z,7.49
2022-09-21T03:35:25.346Z,7.48
2022-09-21T03:37:52.217Z,7.48
2022-09-21T03:40:19.472Z,7.46
2022-09-21T03:42:46.061Z,7.43
2022-09-21T03:45:13.233Z,7.39
2022-09-21T03:47:40.337Z,7.33
2022-09-21T03:50:10.209Z,7.27
2022-09-21T03:52:37.875Z,7.23
2022-09-21T03:55:06.612Z,7.23
2022-09-21T03:57:34.443Z,7.18
2022-09-21T04:00:03.804Z,7.17
2022-09-21T04:02:30.977Z,7.18
2022-09-21T04:04:57.745Z,7.16
2022-09-21T04:07:24.291Z,7.12
2022-09-21T04:09:50.799Z,7.10
2022-09-21T04:12:17.309Z,7.01
2022-09-21T04:14:44.223Z,7.00
2022-09-21T04:17:12.056Z,6.97
2022-09-21T04:19:38.766Z,6.98
2022-09-21T04:22:05.336Z,6.98
2022-09-21T04:24:31.890Z,7.02
2022-09-21T04:26:58.383Z,6.98
2022-09-21T04:29:24.863Z,6.96
2022-09-21T04:31:51.366Z,6.94
2022-09-21T04:34:17.879Z,6.96
2022-09-21T04:36:44.457Z,6.96
2022-09-21T04:39:11.027Z,7.01
2022-09-21T04:41:37.615Z,7.05
2022-09-21T04:44:04.335Z,7.06
2022-09-21T04:46:30.916Z,7.09
2022-09-21T04:48:57.444Z,7.13
2022-09-21T04:51:23.937Z,7.12
2022-09-21T04:53:51.226Z,7.12
2022-09-21T04:56:17.961Z,7.15
2022-09-21T04:58:44.517Z,7.18
2022-09-21T05:01:11.803Z,7.25
2022-09-21T05:03:38.983Z,7.21
2022-09-21T05:06:06.201Z,7.18
2022-09-21T05:08:50.979Z,7.20
2022-09-21T05:11:19.147Z,7.19
2022-09-21T05:13:46.528Z,7.22
2022-09-21T05:16:13.649Z,7.24
2022-09-21T05:18:40.550Z,7.27
2022-09-21T05:21:07.445Z,7.27
2022-09-21T05:23:34.089Z,7.35
2022-09-21T05:26:00.822Z,7.43
2022-09-21T05:28:28.053Z,7.50
2022-09-21T05:31:18.644Z,7.56
2022-09-21T05:34:17.574Z,7.55
2022-09-21T05:36:53.660Z,7.61
2022-09-21T05:39:20.709Z,7.60
2022-09-21T05:41:47.399Z,7.63
2022-09-21T05:44:15.098Z,7.68
2022-09-21T05:46:52.739Z,7.74
2022-09-21T05:49:30.866Z,7.78
2022-09-21T05:52:21.342Z,7.85
2022-09-21T05:54:52.513Z,7.90
2022-09-21T05:57:40.155Z,7.97
2022-09-21T06:00:22.820Z,8.05
2022-09-21T06:03:13.300Z,8.16
2022-09-21T06:05:44.285Z,8.26
2022-09-21T06:08:10.777Z,8.31
2022-09-21T06:10:37.357Z,8.35
2022-09-21T06:13:03.929Z,8.41
2022-09-21T06:15:30.713Z,8.45
2022-09-21T06:17:58.430Z,8.50
2022-09-21T06:20:25.153Z,8.46
2022-09-21T06:22:51.677Z,8.50
2022-09-21T06:25:20.115Z,8.53
2022-09-21T06:27:46.856Z,8.60
2022-09-21T06:30:13.596Z,8.71
2022-09-21T06:32:40.194Z,8.77
2022-09-21T06:35:06.973Z,8.82
2022-09-21T06:37:33.525Z,8.91
2022-09-21T06:40:00.052Z,9.02
2022-09-21T06:42:27.886Z,9.08
2022-09-21T06:44:55.619Z,9.12
2022-09-21T06:47:22.126Z,9.17
2022-09-21T06:49:48.728Z,9.23
2022-09-21T06:52:15.198Z,9.32
2022-09-21T06:54:42.421Z,9.38
2022-09-21T06:57:08.961Z,9.49
2022-09-21T06:59:35.455Z,9.54
2022-09-21T07:02:02.078Z,9.59
2022-09-21T07:04:29.447Z,9.64
2022-09-21T07:06:55.918Z,9.72
2022-09-21T07:12:09.137Z,9.92
2022-09-21T07:14:35.658Z,10.06
2022-09-21T07:17:02.421Z,10.20
2022-09-21T07:19:28.968Z,10.34
2022-09-21T07:21:55.868Z,10.46
2022-09-21T07:24:22.414Z,10.63
2022-09-21T07:26:49.375Z,10.71
2022-09-21T07:29:15.907Z,10.83
2022-09-21T07:31:45.648Z,10.95
2022-09-21T07:34:12.318Z,11.08
2022-09-21T07:36:38.810Z,11.21
2022-09-21T07:39:05.444Z,11.33
2022-09-21T07:41:32.207Z,11.51
2022-09-21T07:43:58.836Z,11.60
2022-09-21T07:46:25.355Z,11.70
2022-09-21T07:48:54.808Z,11.90
2022-09-21T07:51:22.305Z,12.07
2022-09-21T07:53:48.810Z,12.17
2022-09-21T07:56:17.173Z,12.33
2022-09-21T07:59:02.513Z,12.47
2022-09-21T08:01:30.113Z,12.76
2022-09-21T08:03:58.125Z,12.96
2022-09-21T08:06:27.464Z,13.03
2022-09-21T08:08:57.738Z,13.12
2022-09-21T08:11:27.553Z,13.25
2022-09-21T08:14:04.351Z,13.42
2022-09-21T08:16:32.417Z,13.62
2022-09-21T08:18:59.782Z,13.63
2022-09-21T08:21:26.680Z,13.70
2022-09-21T08:23:53.758Z,13.88
2022-09-21T08:26:20.665Z,14.03
2022-09-21T08:28:49.829Z,14.17
2022-09-21T08:31:19.592Z,14.45
2022-09-21T08:33:47.518Z,14.55
2022-09-21T08:36:14.376Z,14.53
2022-09-21T08:38:40.896Z,14.62
2022-09-21T08:41:20.333Z,14.82
2022-09-21T08:44:03.087Z,15.00
2022-09-21T08:46:32.943Z,15.26
2022-09-21T08:49:11.286Z,15.42
2022-09-21T08:51:46.628Z,15.51
2022-09-21T08:54:21.130Z,15.37
2022-09-21T08:57:04.618Z,15.41
2022-09-21T08:59:31.783Z,15.42
2022-09-21T09:02:30.287Z,15.54
2022-09-21T09:04:59.751Z,15.88
2022-09-21T09:07:59.560Z,16.06
2022-09-21T09:10:47.765Z,16.29
2022-09-21T09:13:32.795Z,16.35
2022-09-21T09:16:23.142Z,16.61
2022-09-21T09:18:55.019Z,16.68
2022-09-21T09:21:29.184Z,16.77
2022-09-21T09:24:03.270Z,16.92
2022-09-21T09:26:39.861Z,17.01
2022-09-21T09:29:24.944Z,17.12
2022-09-21T09:31:54.763Z,17.23
2022-09-21T09:34:39.100Z,17.22
2022-09-21T09:37:16.498Z,17.17
2022-09-21T09:39:46.653Z,17.33
2022-09-21T09:42:39.978Z,17.49
2022-09-21T09:45:47.952Z,17.68
2022-09-21T09:48:32.567Z,17.90
2022-09-21T09:50:59.056Z,17.75
2022-09-21T09:53:26.891Z,17.72
2022-09-21T09:55:56.222Z,17.88
2022-09-21T09:58:41.675Z,18.05
2022-09-21T10:01:08.470Z,18.18
2022-09-21T10:03:36.212Z,18.36
2022-09-21T10:06:02.866Z,18.40
2022-09-21T10:08:49.595Z,18.52
2022-09-21T10:11:17.350Z,18.70
2022-09-21T10:13:47.109Z,18.81
2022-09-21T10:16:19.182Z,18.81
2022-09-21T10:18:47.792Z,18.96
2022-09-21T10:21:26.812Z,18.94
2022-09-21T10:23:59.336Z,18.91
2022-09-21T10:26:51.397Z,19.09
2022-09-21T10:29:23.926Z,19.12
2022-09-21T10:32:18.081Z,19.27
2022-09-21T10:35:07.657Z,19.35
2022-09-21T10:37:41.137Z,19.37
2022-09-21T10:40:19.904Z,19.32
2022-09-21T10:42:49.405Z,19.23
2022-09-21T10:45:24.532Z,19.23
2022-09-21T10:48:06.735Z,19.08
2022-09-21T10:50:36.297Z,19.07
2022-09-21T10:53:19.072Z,19.01
2022-09-21T10:56:15.977Z,18.76
2022-09-21T10:59:13.899Z,18.32
2022-09-21T11:01:50.928Z,18.27
2022-09-21T11:04:26.362Z,18.60
2022-09-21T11:07:01.262Z,19.07
2022-09-21T11:09:49.068Z,19.72
2022-09-21T11:12:38.818Z,19.98
2022-09-21T11:15:39.083Z,20.39
2022-09-21T11:18:36.342Z,20.99
2022-09-21T11:21:27.510Z,21.45
2022-09-21T11:24:05.916Z,21.73
2022-09-21T11:26:59.231Z,22.14
2022-09-21T11:29:47.420Z,22.36
2022-09-21T11:32:13.849Z,21.95
2022-09-21T11:34:55.170Z,21.13
2022-09-21T11:37:37.051Z,21.15
2022-09-21T11:40:24.663Z,21.85
2022-09-21T11:43:15.637Z,22.43
2022-09-21T11:46:01.424Z,22.13
2022-09-21T11:48:35.484Z,21.68
2022-09-21T11:51:38.332Z,22.10
2022-09-21T11:54:42.148Z,22.99
2022-09-21T11:57:52.861Z,23.29
2022-09-21T12:00:23.229Z,23.06
2022-09-21T12:02:59.435Z,23.86
2022-09-21T12:05:46.935Z,24.82
2022-09-21T12:08:30.051Z,25.12
2022-09-21T12:11:18.605Z,24.48
2022-09-21T12:14:09.895Z,23.75
2022-09-21T12:16:48.297Z,23.69
2022-09-21T12:19:40.385Z,24.40
2022-09-21T12:22:13.126Z,24.30
2022-09-21T12:24:46.412Z,24.32
2022-09-21T12:27:33.883Z,24.60
2022-09-21T12:30:21.763Z,24.52
2022-09-21T12:32:50.396Z,24.50
2022-09-21T12:35:22.346Z,24.11
2022-09-21T12:38:04.954Z,23.12
2022-09-21T12:41:10.178Z,22.22
2022-09-21T12:43:47.029Z,22.99
2022-09-21T12:46:30.120Z,23.44
2022-09-21T12:49:00.705Z,23.42
2022-09-21T12:51:36.919Z,23.13
2022-09-21T12:54:20.913Z,24.06
2022-09-21T12:57:23.173Z,24.74
2022-09-21T13:00:09.783Z,23.54
2022-09-21T13:02:36.297Z,22.77
2022-09-21T13:05:09.414Z,23.01
2022-09-21T13:08:10.143Z,23.77
2022-09-21T13:10:42.615Z,23.90
2022-09-21T13:13:42.898Z,24.86
2022-09-21T13:16:24.623Z,25.10
2022-09-21T13:19:00.528Z,25.37
2022-09-21T13:21:32.356Z,25.74
2022-09-21T13:24:02.283Z,26.39
2022-09-21T13:26:44.049Z,26.49
2022-09-21T13:29:19.370Z,26.61
2022-09-21T13:31:57.776Z,26.56
2022-09-21T13:34:35.113Z,26.91
2022-09-21T13:37:20.934Z,27.45
2022-09-21T13:40:02.943Z,27.42
2022-09-21T13:42:29.484Z,27.86
2022-09-21T13:45:00.879Z,27.12
2022-09-21T13:47:30.471Z,27.65
2022-09-21T13:50:00.657Z,27.66
2022-09-21T13:52:52.034Z,28.37
2022-09-21T13:55:27.568Z,27.71
2022-09-21T13:57:56.812Z,27.55
2022-09-21T14:00:23.289Z,27.26
2022-09-21T14:02:54.763Z,27.76
2022-09-21T14:05:39.718Z,28.17
2022-09-21T14:08:15.597Z,28.12
2022-09-21T14:10:56.772Z,27.77
2022-09-21T14:13:37.342Z,28.18
2022-09-21T14:16:34.690Z,28.38
2022-09-21T14:19:02.902Z,28.47
2022-09-21T14:21:29.866Z,28.07
2022-09-21T14:24:19.245Z,27.55
2022-09-21T14:26:45.674Z,26.99
2022-09-21T14:29:31.958Z,26.37
2022-09-21T14:32:01.682Z,26.70
2022-09-21T14:34:36.769Z,26.14
2022-09-21T14:37:09.655Z,26.77
2022-09-21T14:39:40.737Z,26.76
2022-09-21T14:42:15.883Z,27.01
2022-09-21T14:44:42.608Z,26.87
2022-09-21T14:47:47.440Z,27.41
2022-09-21T14:50:21.709Z,27.40
2022-09-21T14:53:39.257Z,27.41
2022-09-21T14:56:29.897Z,27.27
2022-09-21T14:58:56.347Z,27.24
2022-09-21T15:01:31.480Z,26.57
2022-09-21T15:04:35.655Z,26.54
2022-09-21T15:07:45.149Z,26.88
2022-09-21T15:10:44.242Z,26.93
2022-09-21T15:13:20.298Z,27.38
2022-09-21T15:16:07.252Z,27.43
2022-09-21T15:18:40.901Z,26.75
2022-09-21T15:21:29.300Z,26.51
2022-09-21T15:23:56.713Z,26.53
2022-09-21T15:26:29.262Z,26.06
2022-09-21T15:29:15.671Z,26.00
2022-09-21T15:31:43.584Z,26.12
2022-09-21T15:34:12.239Z,26.32
2022-09-21T15:36:42.036Z,26.66
2022-09-21T15:39:21.508Z,26.56
2022-09-21T15:41:50.660Z,26.34
2022-09-21T15:44:32.461Z,25.06
2022-09-21T15:47:03.091Z,24.84
2022-09-21T15:49:30.517Z,23.32
2022-09-21T15:52:05.723Z,22.46
2022-09-21T15:54:52.271Z,21.17
2022-09-21T15:57:38.919Z,20.78
2022-09-21T16:00:22.819Z,21.45
2022-09-21T16:03:04.220Z,21.03
2022-09-21T16:05:55.635Z,20.24
2022-09-21T16:08:37.174Z,20.03
2022-09-21T16:11:18.807Z,19.43
2022-09-21T16:14:16.088Z,18.99
2022-09-21T16:17:04.090Z,18.63
2022-09-21T16:19:42.526Z,18.45
2022-09-21T16:22:14.236Z,18.29
2022-09-21T16:24:55.419Z,18.21
2022-09-21T16:27:28.140Z,17.97
2022-09-21T16:29:56.603Z,17.83
2022-09-21T16:32:24.047Z,17.56
2022-09-21T16:34:53.142Z,17.43
2022-09-21T16:37:25.360Z,17.42
2022-09-21T16:39:53.969Z,17.06
2022-09-21T16:42:22.200Z,16.79
2022-09-21T16:44:49.795Z,16.66
2022-09-21T16:47:27.534Z,16.51
2022-09-21T16:49:56.973Z,16.42
2022-09-21T16:52:24.228Z,16.26
2022-09-21T16:54:51.227Z,16.17
2022-09-21T16:57:18.563Z,16.09
2022-09-21T16:59:45.265Z,15.87
2022-09-21T17:02:14.117Z,15.89
2022-09-21T17:04:41.191Z,15.91
2022-09-21T17:07:11.081Z,15.76
2022-09-21T17:09:40.138Z,15.66
2022-09-21T17:12:09.115Z,15.61
2022-09-21T17:14:37.192Z,15.49
2022-09-21T17:17:11.444Z,15.23
2022-09-21T17:19:37.897Z,15.29
2022-09-21T17:22:06.819Z,15.13
2022-09-21T17:24:49.812Z,15.10
2022-09-21T17:27:20.001Z,15.06
2022-09-21T17:29:49.790Z,14.86
2022-09-21T17:32:21.415Z,14.90
2022-09-21T17:34:55.636Z,14.90
2022-09-21T17:37:22.157Z,14.73
2022-09-21T17:39:48.721Z,14.76
2022-09-21T17:42:19.305Z,14.74
2022-09-21T17:44:55.239Z,14.66
2022-09-21T17:47:25.610Z,14.60
2022-09-21T17:49:52.401Z,14.53
2022-09-21T17:52:41.876Z,14.40
2022-09-21T17:55:11.991Z,14.25
2022-09-21T17:58:02.394Z,14.31
2022-09-21T18:00:48.071Z,14.29
2022-09-21T18:03:22.113Z,14.19
2022-09-21T18:05:50.789Z,14.09
2022-09-21T18:08:17.815Z,14.01
2022-09-21T18:10:57.212Z,14.00
2022-09-21T18:14:04.744Z,13.91
2022-09-21T18:16:41.275Z,13.86
2022-09-21T18:19:32.884Z,13.78
2022-09-21T18:22:15.059Z,13.69
2022-09-21T18:24:42.025Z,13.71
2022-09-21T18:27:11.777Z,13.75
2022-09-21T18:29:41.431Z,13.62
2022-09-21T18:32:41.124Z,13.60
2022-09-21T18:35:23.722Z,13.55
2022-09-21T18:38:20.478Z,13.55
2022-09-21T18:41:12.168Z,13.49
2022-09-21T18:44:00.605Z,13.34
2022-09-21T18:46:38.263Z,13.34
2022-09-21T18:49:29.019Z,13.27
2022-09-21T18:52:27.804Z,13.27
2022-09-21T18:54:54.463Z,13.16
2022-09-21T18:57:23.041Z,13.15
2022-09-21T18:59:50.310Z,13.10
2022-09-21T19:02:20.101Z,13.10
2022-09-21T19:04:48.602Z,13.11
2022-09-21T19:07:29.611Z,12.98
2022-09-21T19:09:58.996Z,12.89
2022-09-21T19:12:47.224Z,12.83
2022-09-21T19:16:06.960Z,12.80
2022-09-21T19:18:56.434Z,12.77
2022-09-21T19:21:34.369Z,12.62
2022-09-21T19:24:06.944Z,12.60
2022-09-21T19:26:47.538Z,12.62
2022-09-21T19:29:23.051Z,12.64
2022-09-21T19:31:49.722Z,12.54
2022-09-21T19:34:19.190Z,12.49
2022-09-21T19:36:49.702Z,12.47
2022-09-21T19:39:16.541Z,12.43
2022-09-21T19:42:07.587Z,12.39
2022-09-21T19:44:52.403Z,12.34
2022-09-21T19:47:35.894Z,12.27
2022-09-21T19:50:26.549Z,12.23
2022-09-21T19:53:13.394Z,12.15
2022-09-21T19:56:00.091Z,12.21
2022-09-21T19:58:45.447Z,12.04
2022-09-21T20:01:17.004Z,12.05
2022-09-21T20:03:46.199Z,11.93
2022-09-21T20:06:22.826Z,11.89
2022-09-21T20:09:11.147Z,11.67
2022-09-21T20:12:08.065Z,11.66
2022-09-21T20:15:02.181Z,11.60
2022-09-21T20:17:51.322Z,11.54
2022-09-21T20:20:26.403Z,11.47
2022-09-21T20:22:54.143Z,11.40
2022-09-21T20:25:31.340Z,11.37
2022-09-21T20:27:58.510Z,11.35
2022-09-21T20:30:34.613Z,11.23
2022-09-21T20:33:05.298Z,11.19
2022-09-21T20:35:32.003Z,11.18
2022-09-21T20:38:02.274Z,11.09
2022-09-21T20:40:30.149Z,10.94
2022-09-21T20:42:58.223Z,10.89
2022-09-21T20:45:25.410Z,10.73
2022-09-21T20:47:53.585Z,10.67
2022-09-21T20:50:21.034Z,10.58
2022-09-21T20:52:48.015Z,10.48
2022-09-21T20:55:17.378Z,10.54
2022-09-21T20:57:44.587Z,10.49
2022-09-21T21:00:14.649Z,10.31
2022-09-21T21:02:41.467Z,10.39
2022-09-21T21:05:09.502Z,10.29
2022-09-21T21:07:36.501Z,10.28
2022-09-21T21:10:03.539Z,10.21
2022-09-21T21:12:30.515Z,10.16
2022-09-21T21:14:58.659Z,10.09
2022-09-21T21:17:25.345Z,10.02
2022-09-21T21:19:51.885Z,9.96
2022-09-21T21:22:18.436Z,9.93
2022-09-21T21:24:44.946Z,9.91
2022-09-21T21:27:21.004Z,9.92
2022-09-21T21:29:52.950Z,9.77
2022-09-21T21:32:23.820Z,9.73
2022-09-21T21:34:51.407Z,9.74
2022-09-21T21:37:20.245Z,9.80
2022-09-21T21:39:47.825Z,9.83
2022-09-21T21:42:14.743Z,9.82
2022-09-21T21:44:41.726Z,9.73
2022-09-21T21:47:27.867Z,9.70
2022-09-21T21:49:54.800Z,9.60
2022-09-21T21:52:21.273Z,9.57
2022-09-21T21:54:47.789Z,9.51
2022-09-21T21:57:14.963Z,9.48
2022-09-21T21:59:43.172Z,9.43
2022-09-21T22:02:10.731Z,9.39
2022-09-21T22:04:37.474Z,9.38
2022-09-21T22:07:04.291Z,9.39
2022-09-21T22:17:05.246Z,9.04
2022-09-21T22:19:32.982Z,9.03
2022-09-21T22:21:59.551Z,8.94
2022-09-21T22:24:26.107Z,8.92
2022-09-21T22:26:52.611Z,8.81
2022-09-21T22:29:19.085Z,8.79
2022-09-21T22:31:48.389Z,8.72
2022-09-21T22:34:15.662Z,8.71
2022-09-21T22:36:45.719Z,8.62
2022-09-21T22:39:13.021Z,8.55
2022-09-21T22:41:41.548Z,8.58
2022-09-21T22:44:09.224Z,8.48
2022-09-21T22:46:36.845Z,8.28
2022-09-21T22:49:03.744Z,8.26
2022-09-21T22:51:31.211Z,8.20
2022-09-21T22:53:58.212Z,8.24
2022-09-21T22:56:27.111Z,8.18
2022-09-21T22:58:56.427Z,8.19
2022-09-21T23:01:25.647Z,8.21
2022-09-21T23:04:00.985Z,8.22
2022-09-21T23:06:31.742Z,8.13
2022-09-21T23:08:59.162Z,8.17
2022-09-21T23:11:35.058Z,8.25
2022-09-21T23:14:03.367Z,8.22
2022-09-21T23:16:30.536Z,8.19
2022-09-21T23:18:58.131Z,8.13
2022-09-21T23:21:29.819Z,8.08
2022-09-21T23:23:59.939Z,8.02
2022-09-21T23:26:28.527Z,8.03
2022-09-21T23:28:58.186Z,7.96
2022-09-21T23:31:28.556Z,7.91
2022-09-21T23:33:57.522Z,7.87
2022-09-21T23:36:27.224Z,7.86
2022-09-21T23:38:54.460Z,7.83
2022-09-21T23:41:24.074Z,7.84
2022-09-21T23:43:51.648Z,7.87
2022-09-21T23:46:20.981Z,7.86
2022-09-21T23:48:48.146Z,7.86
2022-09-21T23:51:14.845Z,7.93
2022-09-21T23:53:41.996Z,7.87
2022-09-21T23:56:11.429Z,7.91
2022-09-21T23:58:37.896Z,7.86
